The Hangar Logo

METARs in Plain English
Latest METAR information for EGVN - BRIZE NORTON

EGVN 222350Z 35001KT CAVOK 13/05 Q1030 BLU NOSIG

In plain english is....

This is a METAR report for EGVN - BRIZE NORTON .
The report was made 63 minutes ago, at 23:50 UTC.
The wind was blowing at a speed of 1 knots (1.2 miles per hour, 0.5 metres per second) from the North (350°).
The visibility was greater than 6.2 miles (greater than 10 kilometres).
There were no clouds below 5,000 feet (1,524 metres).
The temperature was 13°C (55°F), a dew point of 5°C (41°F) and a relative humidity of 58.2%.
The altimeter setting (airfield QNH) was 1,030 hPa (30.42 inHg).
Other remarks BLU NOSIG.

UK Mainland

Ireland

Channel Islands (& Isle of Man)

France

Other



Enter
Tel: 07092 887559 - Fax: 07092 183262

Content copyright © 1999-2016 TheHangar.co.uk. All rights reserved.
Please send your questions, comments, or bug reports to the Webmaster.